Time;durP1;ratioP1;P1;durP2;ratioP2;P2;SDS_P1;SDS_P2;PMS_P1;PMS_P2;Temp;Humidity;BMP_temperature;BMP_pressure;BME280_temperature;BME280_humidity;BME280_pressure;Samples;Min_cycle;Max_cycle;Signal;HPM_P1;HPM_P2
2022/03/13 00:00:39;;;;;;;46.10;21.02;;;4.10;85.60;;;;;;5067810;28;20477;-75
2022/03/13 00:03:09;;;;;;;45.65;21.83;;;4.00;85.80;;;;;;5064647;28;20031;-75
2022/03/13 00:05:41;;;;;;;44.65;21.38;;;4.00;86.90;;;;;;5067801;28;20024;-76
2022/03/13 00:08:22;;;;;;;40.33;22.75;;;3.90;87.10;;;;;;5064963;28;20017;-75
2022/03/13 00:10:55;;;;;;;43.47;21.83;;;3.90;87.90;;;;;;5059119;28;20020;-76
2022/03/13 00:13:22;;;;;;;40.40;21.25;;;3.90;87.60;;;;;;5063383;28;20385;-75
2022/03/13 00:15:50;;;;;;;45.03;20.58;;;3.90;88.10;;;;;;5063208;28;20030;-75
2022/03/13 00:18:16;;;;;;;39.97;19.95;;;3.90;88.60;;;;;;5062502;28;20102;-76
2022/03/13 00:20:42;;;;;;;41.58;21.92;;;3.90;88.60;;;;;;5065451;28;20036;-76
2022/03/13 00:23:08;;;;;;;39.15;19.77;;;3.90;88.40;;;;;;5066285;28;20067;-75
2022/03/13 00:25:34;;;;;;;41.45;20.23;;;3.80;88.00;;;;;;5065163;28;20032;-75
2022/03/13 00:27:59;;;;;;;39.80;20.02;;;3.80;88.50;;;;;;5066432;28;20020;-75
2022/03/13 00:30:25;;;;;;;44.00;20.58;;;3.80;88.70;;;;;;5062986;28;20078;-75
2022/03/13 00:32:51;;;;;;;38.70;20.08;;;3.90;88.20;;;;;;5062403;28;20029;-75
2022/03/13 00:35:17;;;;;;;39.35;19.25;;;3.80;87.70;;;;;;5064262;28;20033;-76
2022/03/13 00:37:43;;;;;;;35.70;17.40;;;3.70;87.40;;;;;;5065859;28;20031;-75
2022/03/13 00:40:10;;;;;;;34.63;18.25;;;3.70;86.20;;;;;;5063979;28;20024;-75
2022/03/13 00:42:36;;;;;;;33.17;17.27;;;3.70;86.00;;;;;;5056587;28;20504;-75
2022/03/13 00:45:02;;;;;;;38.38;17.55;;;3.60;85.30;;;;;;5065424;28;20481;-75
2022/03/13 00:47:28;;;;;;;31.88;15.38;;;3.60;85.60;;;;;;5062326;28;20032;-75
2022/03/13 00:49:54;;;;;;;32.83;15.57;;;3.60;85.30;;;;;;5065243;28;20170;-75
2022/03/13 00:52:19;;;;;;;29.77;15.38;;;3.60;85.00;;;;;;5070363;28;20508;-76
2022/03/13 00:54:45;;;;;;;30.23;15.43;;;3.50;83.90;;;;;;5065773;28;20031;-74
2022/03/13 00:57:11;;;;;;;29.65;14.68;;;3.60;84.00;;;;;;5066088;28;20535;-73
2022/03/13 00:59:37;;;;;;;32.50;15.23;;;3.50;83.40;;;;;;5067830;28;20035;-74
2022/03/13 01:02:03;;;;;;;28.85;15.40;;;3.50;83.20;;;;;;5064289;28;20120;-73
2022/03/13 01:04:28;;;;;;;28.20;15.48;;;3.50;83.30;;;;;;5063554;28;20120;-73
2022/03/13 01:06:54;;;;;;;33.33;14.90;;;3.40;84.00;;;;;;5063906;28;20460;-73
2022/03/13 01:09:20;;;;;;;26.48;13.77;;;3.40;83.60;;;;;;5065355;28;20036;-75
2022/03/13 01:11:45;;;;;;;30.73;13.38;;;3.40;83.30;;;;;;5065510;28;20056;-74
2022/03/13 01:14:12;;;;;;;30.90;14.00;;;3.40;83.30;;;;;;5063127;28;20024;-74
2022/03/13 01:16:40;;;;;;;30.73;13.43;;;3.30;82.50;;;;;;5065419;28;20039;-74
2022/03/13 01:19:06;;;;;;;24.52;12.18;;;3.30;82.00;;;;;;5067106;28;20028;-74
2022/03/13 01:21:34;;;;;;;25.23;11.98;;;3.20;81.70;;;;;;5064445;28;20031;-74
2022/03/13 01:24:00;;;;;;;23.15;12.80;;;3.20;81.50;;;;;;5070515;28;20036;-74
2022/03/13 01:26:25;;;;;;;27.25;11.70;;;3.20;83.30;;;;;;5070613;28;20027;-74
2022/03/13 01:29:02;;;;;;;23.45;11.68;;;3.20;81.60;;;;;;5070206;28;20124;-75
2022/03/13 01:31:31;;;;;;;24.98;12.95;;;3.30;80.10;;;;;;5068068;28;20017;-77
2022/03/13 01:33:58;;;;;;;25.20;12.30;;;3.30;80.10;;;;;;5068576;28;20043;-74
2022/03/13 01:36:25;;;;;;;25.35;12.75;;;3.30;80.50;;;;;;5070909;28;20107;-74
2022/03/13 01:38:59;;;;;;;24.77;12.98;;;3.20;82.80;;;;;;5059941;28;20675;-74
2022/03/13 01:41:28;;;;;;;32.65;14.30;;;3.20;83.60;;;;;;5071464;28;20024;-74
2022/03/13 01:43:54;;;;;;;26.38;13.77;;;3.20;84.40;;;;;;5069975;28;20021;-75
2022/03/13 01:46:20;;;;;;;27.45;14.35;;;3.10;84.80;;;;;;5067722;28;20032;-74
2022/03/13 01:49:16;;;;;;;29.00;15.15;;;3.10;85.10;;;;;;5067421;28;20073;-74
2022/03/13 01:51:42;;;;;;;32.13;14.68;;;3.10;86.30;;;;;;5069996;28;20480;-74
2022/03/13 01:54:12;;;;;;;31.73;15.75;;;3.10;87.20;;;;;;5063481;28;20074;-73
2022/03/13 01:56:39;;;;;;;30.30;14.90;;;3.10;89.50;;;;;;5069959;28;20397;-75
2022/03/13 01:59:08;;;;;;;28.95;14.60;;;3.10;88.70;;;;;;5068468;28;20420;-74
2022/03/13 02:01:34;;;;;;;32.10;15.48;;;3.10;88.50;;;;;;5067738;28;20103;-74
2022/03/13 02:04:00;;;;;;;35.55;16.63;;;3.00;87.80;;;;;;5065627;28;20709;-74
2022/03/13 02:06:26;;;;;;;30.45;15.30;;;3.00;88.60;;;;;;5065118;28;20101;-74
2022/03/13 02:08:54;;;;;;;27.75;14.27;;;2.90;88.40;;;;;;5062517;28;20558;-75
2022/03/13 02:11:24;;;;;;;30.27;15.02;;;2.90;89.20;;;;;;5064631;28;20452;-74
2022/03/13 02:13:52;;;;;;;32.25;14.40;;;2.90;89.90;;;;;;5065478;28;20074;-73
2022/03/13 02:16:19;;;;;;;32.92;15.65;;;2.80;89.60;;;;;;5064904;28;20020;-73
2022/03/13 02:18:50;;;;;;;30.25;14.70;;;2.80;89.70;;;;;;5069459;28;20036;-73
2022/03/13 02:21:25;;;;;;;31.42;16.23;;;2.80;90.20;;;;;;5070186;28;20040;-74
2022/03/13 02:23:51;;;;;;;31.98;16.40;;;2.80;90.70;;;;;;5064505;28;20481;-75
2022/03/13 02:26:20;;;;;;;33.63;17.05;;;2.70;90.50;;;;;;5069262;28;20078;-77
2022/03/13 02:28:52;;;;;;;34.30;16.92;;;2.70;90.90;;;;;;5062220;28;20040;-73
2022/03/13 02:31:25;;;;;;;34.65;17.73;;;2.70;91.00;;;;;;5063391;28;20374;-73
2022/03/13 02:33:53;;;;;;;36.22;17.75;;;2.60;91.20;;;;;;5064278;28;20044;-76
2022/03/13 02:36:37;;;;;;;32.78;17.83;;;2.60;91.60;;;;;;5064179;28;20028;-74
2022/03/13 02:39:05;;;;;;;39.00;17.35;;;2.60;92.00;;;;;;5065317;28;20112;-74
2022/03/13 02:41:32;;;;;;;33.00;17.55;;;2.60;92.30;;;;;;5064517;28;20077;-74
2022/03/13 02:43:58;;;;;;;37.20;18.02;;;2.60;92.30;;;;;;5077142;28;20036;-75
2022/03/13 02:46:42;;;;;;;33.83;17.65;;;2.60;92.50;;;;;;5063606;28;20074;-74
2022/03/13 02:49:08;;;;;;;31.73;17.55;;;2.60;92.60;;;;;;5067600;28;20599;-75
2022/03/13 02:51:34;;;;;;;38.72;18.58;;;2.60;93.00;;;;;;5068801;28;20017;-75
2022/03/13 02:53:59;;;;;;;38.85;18.65;;;2.60;93.20;;;;;;5063552;28;20465;-74
2022/03/13 02:56:25;;;;;;;35.75;18.23;;;2.60;93.20;;;;;;5065520;28;20044;-74
2022/03/13 02:58:51;;;;;;;38.15;17.90;;;2.50;93.50;;;;;;5065527;28;20452;-74
2022/03/13 03:01:19;;;;;;;36.85;18.95;;;2.50;93.50;;;;;;5066328;28;20033;-74
2022/03/13 03:03:44;;;;;;;33.90;17.85;;;2.50;93.90;;;;;;5066670;28;20477;-75
2022/03/13 03:06:13;;;;;;;38.42;18.20;;;2.60;94.20;;;;;;5065718;28;20021;-76
2022/03/13 03:08:39;;;;;;;32.55;16.90;;;2.50;93.90;;;;;;5084714;23;20386;-69
2022/03/13 03:11:05;;;;;;;32.00;16.05;;;2.50;94.00;;;;;;5048993;28;20084;-69
2022/03/13 03:13:31;;;;;;;31.60;16.75;;;2.50;93.60;;;;;;5047445;28;20021;-69
2022/03/13 03:15:57;;;;;;;32.50;16.92;;;2.40;93.80;;;;;;5049093;28;20078;-69
2022/03/13 03:18:23;;;;;;;32.92;16.55;;;2.30;93.90;;;;;;5048810;28;20459;-70
2022/03/13 03:20:49;;;;;;;29.63;15.23;;;2.20;93.90;;;;;;5044341;28;20573;-70
2022/03/13 03:23:15;;;;;;;28.27;15.13;;;2.20;94.10;;;;;;5045219;28;20116;-70
2022/03/13 03:25:41;;;;;;;33.67;16.23;;;2.10;94.30;;;;;;5047330;28;20045;-70
2022/03/13 03:28:07;;;;;;;34.05;17.45;;;2.10;94.80;;;;;;5050305;28;20029;-70
2022/03/13 03:30:33;;;;;;;40.40;17.75;;;2.10;95.20;;;;;;5046443;28;20927;-70
2022/03/13 03:33:04;;;;;;;37.75;17.85;;;2.10;95.70;;;;;;5046334;28;20412;-70
2022/03/13 03:35:30;;;;;;;33.42;17.80;;;2.10;95.90;;;;;;5045339;28;20025;-70
2022/03/13 03:37:56;;;;;;;33.45;18.25;;;2.10;96.50;;;;;;5048082;28;20544;-70
2022/03/13 03:40:30;;;;;;;38.70;19.35;;;2.20;96.90;;;;;;5046234;28;20025;-70
2022/03/13 03:43:00;;;;;;;35.45;16.33;;;2.20;97.10;;;;;;5042929;28;20071;-70
2022/03/13 03:45:26;;;;;;;32.35;17.33;;;2.20;97.30;;;;;;5049382;28;20392;-69
2022/03/13 03:47:52;;;;;;;36.70;17.45;;;2.20;96.70;;;;;;5047359;28;20496;-69
2022/03/13 03:50:19;;;;;;;35.78;18.20;;;2.10;97.00;;;;;;5046447;28;20139;-69
2022/03/13 03:52:45;;;;;;;33.58;17.88;;;2.00;97.40;;;;;;5045023;28;20072;-70
2022/03/13 03:55:11;;;;;;;35.05;18.33;;;1.80;97.50;;;;;;5044606;28;20446;-70
2022/03/13 03:57:37;;;;;;;34.72;18.45;;;1.70;98.30;;;;;;5046940;28;20107;-68
2022/03/13 04:00:05;;;;;;;36.45;18.08;;;1.70;98.40;;;;;;5046014;28;20156;-69
2022/03/13 04:02:32;;;;;;;37.97;19.13;;;1.60;98.80;;;;;;5043849;28;20035;-70
2022/03/13 04:04:58;;;;;;;31.65;16.65;;;1.60;99.20;;;;;;5048320;28;20407;-70
2022/03/13 04:07:24;;;;;;;36.10;17.33;;;1.60;99.60;;;;;;5053341;28;20029;-69
2022/03/13 04:09:49;;;;;;;35.70;17.70;;;1.60;99.60;;;;;;5045166;28;20032;-69
2022/03/13 04:12:16;;;;;;;35.83;17.63;;;1.60;99.90;;;;;;5048840;28;20078;-69
2022/03/13 04:14:42;;;;;;;29.73;15.15;;;1.60;99.90;;;;;;5049143;28;20021;-68
2022/03/13 04:17:08;;;;;;;31.33;14.63;;;1.60;99.90;;;;;;5043064;28;20032;-69
2022/03/13 04:19:34;;;;;;;29.85;14.35;;;1.70;99.60;;;;;;5049822;28;20036;-69
2022/03/13 04:21:59;;;;;;;27.55;13.80;;;1.70;99.00;;;;;;5042752;28;20025;-69
2022/03/13 04:24:25;;;;;;;25.20;12.95;;;1.70;98.20;;;;;;5045005;28;20385;-70
2022/03/13 04:26:51;;;;;;;25.23;11.88;;;1.70;97.00;;;;;;5045762;28;20025;-68
2022/03/13 04:29:18;;;;;;;25.90;11.40;;;1.80;96.90;;;;;;5047507;28;20047;-70
2022/03/13 04:31:46;;;;;;;20.55;11.05;;;1.80;96.30;;;;;;5043386;28;20086;-70
2022/03/13 04:34:12;;;;;;;21.33;11.15;;;1.80;95.30;;;;;;5050939;28;20013;-69
2022/03/13 04:36:38;;;;;;;22.25;10.65;;;1.80;95.20;;;;;;5042023;28;20029;-69
2022/03/13 04:39:05;;;;;;;25.42;12.20;;;1.70;95.60;;;;;;5053659;28;20029;-70
2022/03/13 04:41:32;;;;;;;23.40;12.50;;;1.70;95.60;;;;;;5042290;28;20025;-70
2022/03/13 04:43:58;;;;;;;24.38;12.40;;;1.70;95.80;;;;;;5046238;28;20031;-69
2022/03/13 04:46:25;;;;;;;37.00;15.32;;;1.70;95.80;;;;;;5049320;28;20112;-70
2022/03/13 04:48:51;;;;;;;32.28;16.35;;;1.60;97.50;;;;;;5047702;28;20043;-70
2022/03/13 04:51:16;;;;;;;32.85;16.73;;;1.60;98.90;;;;;;5048034;28;20544;-70
2022/03/13 04:53:42;;;;;;;32.42;16.02;;;1.70;99.10;;;;;;5043094;28;20033;-70
2022/03/13 04:56:08;;;;;;;32.25;16.40;;;1.60;99.60;;;;;;5044219;28;20061;-70
2022/03/13 04:58:34;;;;;;;33.72;18.45;;;1.60;99.80;;;;;;5045028;28;20037;-70
2022/03/13 05:01:00;;;;;;;34.35;17.50;;;1.60;99.90;;;;;;5047778;28;20456;-70
2022/03/13 05:03:31;;;;;;;36.53;17.33;;;1.60;99.90;;;;;;5047262;28;20035;-69
2022/03/13 05:05:57;;;;;;;35.88;17.67;;;1.50;99.90;;;;;;5047980;28;20117;-69
2022/03/13 05:08:23;;;;;;;33.97;16.55;;;1.50;99.90;;;;;;5051031;28;20568;-69
2022/03/13 05:10:50;;;;;;;34.33;17.27;;;1.50;99.90;;;;;;5055047;28;20017;-70
2022/03/13 05:13:18;;;;;;;34.53;17.23;;;1.60;99.90;;;;;;5050072;28;20018;-70
2022/03/13 05:15:46;;;;;;;33.60;17.48;;;1.50;99.90;;;;;;5050380;28;20064;-69
2022/03/13 05:18:12;;;;;;;37.15;16.80;;;1.40;99.90;;;;;;5049532;28;20033;-70
2022/03/13 05:20:42;;;;;;;30.52;15.65;;;1.40;99.90;;;;;;5054927;28;20370;-70
2022/03/13 05:23:08;;;;;;;35.17;17.23;;;1.40;99.90;;;;;;5063884;28;20440;-70
2022/03/13 05:25:35;;;;;;;32.97;16.23;;;1.30;99.90;;;;;;5052161;28;20119;-69
2022/03/13 05:28:03;;;;;;;34.70;16.95;;;1.30;99.90;;;;;;5044326;28;20104;-69
2022/03/13 05:30:29;;;;;;;33.90;16.15;;;1.30;99.90;;;;;;5050413;28;20021;-69
2022/03/13 05:32:55;;;;;;;28.52;15.10;;;1.40;99.90;;;;;;5047485;28;20021;-70
2022/03/13 05:35:22;;;;;;;30.58;15.52;;;1.30;99.90;;;;;;5045984;28;20107;-69
2022/03/13 05:37:47;;;;;;;33.75;16.45;;;1.30;99.90;;;;;;5047952;28;20113;-69
2022/03/13 05:40:15;;;;;;;34.50;15.52;;;1.30;99.90;;;;;;5048618;28;20116;-67
2022/03/13 05:42:46;;;;;;;32.40;14.27;;;1.30;99.90;;;;;;5048618;28;20056;-69
2022/03/13 05:45:15;;;;;;;31.58;15.07;;;1.30;99.90;;;;;;5054458;28;20029;-69
2022/03/13 05:47:48;;;;;;;30.38;14.70;;;1.30;99.90;;;;;;5047388;28;20028;-68
2022/03/13 05:50:14;;;;;;;30.73;15.27;;;1.30;99.90;;;;;;5048996;28;20520;-68
2022/03/13 05:52:41;;;;;;;32.08;15.95;;;1.30;99.90;;;;;;5034530;28;20031;-69
2022/03/13 05:55:08;;;;;;;32.72;14.93;;;1.30;99.90;;;;;;5048935;28;20069;-68
2022/03/13 05:57:34;;;;;;;34.17;14.48;;;1.30;99.90;;;;;;5049446;28;20116;-69
2022/03/13 06:00:00;;;;;;;27.23;13.88;;;1.30;99.90;;;;;;5049767;28;20111;-69
2022/03/13 06:02:26;;;;;;;32.35;14.98;;;1.40;99.90;;;;;;5046337;28;20060;-69
2022/03/13 06:04:55;;;;;;;31.30;15.10;;;1.30;99.90;;;;;;5045313;28;20053;-69
2022/03/13 06:07:21;;;;;;;26.23;14.15;;;1.30;99.90;;;;;;5046528;28;20036;-69
2022/03/13 06:09:46;;;;;;;28.38;14.65;;;1.30;99.90;;;;;;5049124;28;20079;-69
2022/03/13 06:12:16;;;;;;;32.30;16.00;;;1.40;99.90;;;;;;5049766;28;20124;-69
2022/03/13 06:14:43;;;;;;;27.38;13.63;;;1.40;99.90;;;;;;5052667;28;20027;-68
2022/03/13 06:17:08;;;;;;;30.98;15.63;;;1.40;99.90;;;;;;5045391;28;20026;-69
2022/03/13 06:19:37;;;;;;;37.25;15.85;;;1.40;99.90;;;;;;5047880;28;20021;-69
2022/03/13 06:22:03;;;;;;;29.40;14.63;;;1.40;99.90;;;;;;5048278;28;20032;-69
2022/03/13 06:24:31;;;;;;;33.58;14.48;;;1.40;99.90;;;;;;5049586;28;20394;-69
2022/03/13 06:26:56;;;;;;;31.08;14.40;;;1.50;99.90;;;;;;5049844;28;20097;-69
2022/03/13 06:29:22;;;;;;;29.65;15.20;;;1.60;99.90;;;;;;5045737;28;20170;-69
2022/03/13 06:31:48;;;;;;;35.92;16.33;;;1.60;99.90;;;;;;5052516;28;20017;-69
2022/03/13 06:34:14;;;;;;;38.05;17.20;;;1.70;99.90;;;;;;5053875;28;20028;-69
2022/03/13 06:36:39;;;;;;;33.97;17.02;;;1.80;99.90;;;;;;5059364;28;20025;-68
2022/03/13 06:39:05;;;;;;;31.08;15.32;;;1.90;99.90;;;;;;5050395;28;20017;-70
2022/03/13 06:41:31;;;;;;;30.17;16.55;;;2.00;99.90;;;;;;5047589;28;20029;-68
2022/03/13 06:43:57;;;;;;;29.17;15.32;;;2.00;99.90;;;;;;5051562;28;20108;-68
2022/03/13 06:46:22;;;;;;;33.17;16.52;;;2.00;99.90;;;;;;5050856;28;20025;-69
2022/03/13 06:48:48;;;;;;;32.70;16.83;;;2.10;99.90;;;;;;5045282;28;20032;-70
2022/03/13 06:51:14;;;;;;;33.22;16.02;;;2.10;99.90;;;;;;5047035;28;20033;-69
2022/03/13 06:53:39;;;;;;;30.23;16.67;;;2.20;99.90;;;;;;5049182;28;20054;-69
2022/03/13 06:56:05;;;;;;;28.38;15.25;;;2.30;99.90;;;;;;5060183;28;20385;-69
2022/03/13 06:58:31;;;;;;;33.92;15.25;;;2.30;99.90;;;;;;5048493;28;20029;-70
2022/03/13 07:00:57;;;;;;;29.73;15.13;;;2.40;99.90;;;;;;5048452;28;20032;-70
2022/03/13 07:03:22;;;;;;;31.08;16.65;;;2.50;99.90;;;;;;5046463;28;20060;-69
2022/03/13 07:05:48;;;;;;;30.27;16.13;;;2.50;99.90;;;;;;5041278;28;20040;-69
2022/03/13 07:08:15;;;;;;;33.78;15.50;;;2.50;99.90;;;;;;5042931;28;20444;-69
2022/03/13 07:10:41;;;;;;;32.22;17.55;;;2.60;99.90;;;;;;5041667;28;20029;-70
2022/03/13 07:13:06;;;;;;;29.73;16.52;;;2.70;99.80;;;;;;5046057;28;20048;-69
2022/03/13 07:15:32;;;;;;;34.05;15.98;;;2.70;99.80;;;;;;5048419;28;20045;-69
2022/03/13 07:17:58;;;;;;;29.20;14.98;;;2.80;99.20;;;;;;5045431;28;20036;-69
2022/03/13 07:20:24;;;;;;;31.50;16.15;;;2.90;98.80;;;;;;5049932;28;20033;-69
2022/03/13 07:22:50;;;;;;;32.08;16.48;;;3.00;98.80;;;;;;5051098;28;21905;-70
2022/03/13 07:25:16;;;;;;;30.23;15.45;;;3.00;98.30;;;;;;5040398;28;20138;-70
2022/03/13 07:27:43;;;;;;;29.92;15.48;;;3.10;98.20;;;;;;5045444;28;20469;-72
2022/03/13 07:30:14;;;;;;;30.70;16.35;;;3.20;97.80;;;;;;5052182;28;20029;-72
2022/03/13 07:32:40;;;;;;;34.15;16.27;;;3.30;97.50;;;;;;5051886;28;20035;-72
2022/03/13 07:35:10;;;;;;;29.88;16.33;;;3.40;97.50;;;;;;5049919;28;20037;-73
2022/03/13 07:37:36;;;;;;;30.98;16.40;;;3.50;97.20;;;;;;5052269;28;20048;-72
2022/03/13 07:40:02;;;;;;;31.90;16.42;;;3.50;97.00;;;;;;5058915;28;20060;-72
2022/03/13 07:42:28;;;;;;;34.17;17.00;;;3.50;96.90;;;;;;5061421;28;20556;-72
2022/03/13 07:44:54;;;;;;;30.65;17.25;;;3.50;96.90;;;;;;5048353;28;20032;-71
2022/03/13 07:47:19;;;;;;;29.02;15.57;;;3.60;96.60;;;;;;5051842;28;20450;-70
2022/03/13 07:49:45;;;;;;;32.67;16.63;;;3.70;96.10;;;;;;5044260;28;20591;-72
2022/03/13 07:52:11;;;;;;;31.13;15.85;;;3.80;96.20;;;;;;5049331;28;20079;-71
2022/03/13 07:54:37;;;;;;;33.72;17.67;;;3.90;95.70;;;;;;5052018;28;20425;-72
2022/03/13 07:57:03;;;;;;;36.28;16.75;;;4.00;95.50;;;;;;5045361;28;20029;-71
2022/03/13 07:59:28;;;;;;;31.83;18.15;;;4.10;95.00;;;;;;5044423;28;20497;-72
2022/03/13 08:01:54;;;;;;;36.22;18.00;;;4.10;95.20;;;;;;5047097;28;20094;-72
2022/03/13 08:04:20;;;;;;;33.90;17.08;;;4.20;95.10;;;;;;5048919;28;20493;-72
2022/03/13 08:06:46;;;;;;;30.77;16.33;;;4.30;94.90;;;;;;5054633;28;20060;-71
2022/03/13 08:09:12;;;;;;;34.67;17.30;;;4.30;94.60;;;;;;5048751;28;20051;-71
2022/03/13 08:11:38;;;;;;;32.42;16.17;;;4.50;94.50;;;;;;5042689;28;20481;-71
2022/03/13 08:14:04;;;;;;;28.60;16.38;;;4.50;93.30;;;;;;5044977;28;20017;-71
2022/03/13 08:16:30;;;;;;;30.75;15.55;;;4.60;93.00;;;;;;5044297;28;20033;-71
2022/03/13 08:18:56;;;;;;;30.80;15.07;;;4.60;92.60;;;;;;5051227;28;20021;-72
2022/03/13 08:21:22;;;;;;;29.15;15.00;;;4.70;92.10;;;;;;5050978;28;20032;-72
2022/03/13 08:23:48;;;;;;;30.00;15.75;;;4.80;91.10;;;;;;5051343;28;20025;-72
2022/03/13 08:26:14;;;;;;;30.27;15.35;;;4.80;91.40;;;;;;5047407;28;20033;-72
2022/03/13 08:28:44;;;;;;;30.45;15.75;;;4.90;91.40;;;;;;5052547;28;20394;-71
2022/03/13 08:31:11;;;;;;;26.38;14.15;;;5.00;91.40;;;;;;5046163;28;20033;-71
2022/03/13 08:33:36;;;;;;;26.00;15.13;;;5.10;90.90;;;;;;5053217;28;20040;-70
2022/03/13 08:36:03;;;;;;;31.70;16.00;;;5.20;90.50;;;;;;5051457;28;20021;-71
2022/03/13 08:38:29;;;;;;;28.08;14.70;;;5.20;90.30;;;;;;5040886;28;20029;-71
2022/03/13 08:40:55;;;;;;;28.55;14.85;;;5.30;90.00;;;;;;5037871;28;20037;-71
2022/03/13 08:43:21;;;;;;;27.85;14.90;;;5.50;88.80;;;;;;5032191;28;20551;-71
2022/03/13 08:45:47;;;;;;;28.05;14.25;;;5.50;87.80;;;;;;5048691;28;20036;-72
2022/03/13 08:48:13;;;;;;;26.60;14.05;;;5.60;86.10;;;;;;5049837;28;20473;-71
2022/03/13 08:50:39;;;;;;;30.48;13.57;;;5.70;85.50;;;;;;5047604;28;20043;-71
2022/03/13 08:53:05;;;;;;;27.20;14.88;;;5.80;84.60;;;;;;5051267;28;20029;-71
2022/03/13 08:55:31;;;;;;;27.80;14.70;;;5.90;84.30;;;;;;5052883;28;20051;-71
2022/03/13 08:57:57;;;;;;;24.35;12.98;;;6.00;84.20;;;;;;5051435;28;20028;-71
2022/03/13 09:00:24;;;;;;;30.17;14.50;;;6.20;82.80;;;;;;5051694;28;20029;-71
2022/03/13 09:02:50;;;;;;;27.33;15.02;;;6.20;82.70;;;;;;5054217;28;20023;-73
2022/03/13 09:05:16;;;;;;;26.83;15.07;;;6.30;82.80;;;;;;5051214;28;20033;-72
2022/03/13 09:07:43;;;;;;;31.25;15.65;;;6.40;82.50;;;;;;5046459;28;20353;-73
2022/03/13 09:10:09;;;;;;;34.72;15.57;;;6.40;82.00;;;;;;5042669;28;20029;-71
2022/03/13 09:12:35;;;;;;;27.58;15.27;;;6.60;82.20;;;;;;5047927;28;20025;-71
2022/03/13 09:15:03;;;;;;;33.42;14.48;;;6.70;82.10;;;;;;5047218;28;20061;-71
2022/03/13 09:17:29;;;;;;;26.98;15.70;;;6.80;81.50;;;;;;5047086;28;20047;-71
2022/03/13 09:19:56;;;;;;;29.92;16.20;;;6.90;81.00;;;;;;5046976;28;20104;-71
2022/03/13 09:22:30;;;;;;;28.77;15.80;;;7.00;80.30;;;;;;5048913;28;20487;-70
2022/03/13 09:24:58;;;;;;;28.08;14.73;;;7.10;80.40;;;;;;5044303;28;20025;-71
2022/03/13 09:27:29;;;;;;;31.02;15.48;;;7.20;80.10;;;;;;5050646;28;20029;-71
2022/03/13 09:29:57;;;;;;;28.33;14.48;;;7.30;79.10;;;;;;5045567;28;20109;-71
2022/03/13 09:32:24;;;;;;;25.48;14.38;;;7.40;78.70;;;;;;5044642;28;20116;-70
2022/03/13 09:34:50;;;;;;;31.02;14.75;;;7.50;78.20;;;;;;5039940;28;20097;-71
2022/03/13 09:37:16;;;;;;;29.00;14.50;;;7.50;78.30;;;;;;5048451;28;20112;-71
2022/03/13 09:39:42;;;;;;;25.92;15.20;;;7.70;78.00;;;;;;5046228;28;20032;-71
2022/03/13 09:42:08;;;;;;;26.88;14.50;;;7.70;77.20;;;;;;5039899;28;20394;-71
2022/03/13 09:44:34;;;;;;;34.55;16.95;;;7.80;77.10;;;;;;5047961;28;20025;-71
2022/03/13 09:47:02;;;;;;;25.05;14.85;;;7.90;77.30;;;;;;5049781;28;20021;-71
2022/03/13 09:49:28;;;;;;;25.45;15.23;;;8.00;76.50;;;;;;5050686;28;20036;-71
2022/03/13 09:51:54;;;;;;;23.60;13.23;;;8.10;76.10;;;;;;5030435;28;20029;-71
2022/03/13 09:54:20;;;;;;;26.92;15.20;;;8.20;75.80;;;;;;5047547;28;20055;-70
2022/03/13 09:56:46;;;;;;;24.83;14.75;;;8.30;75.60;;;;;;5033215;28;20040;-71
2022/03/13 09:59:11;;;;;;;27.05;15.05;;;8.50;74.90;;;;;;5049763;28;20450;-71
2022/03/13 10:01:37;;;;;;;26.48;14.88;;;8.50;75.00;;;;;;5047632;28;20033;-71
2022/03/13 10:04:04;;;;;;;23.35;14.07;;;8.70;74.50;;;;;;5044398;28;20036;-71
2022/03/13 10:06:30;;;;;;;27.17;15.68;;;8.80;73.80;;;;;;5050877;28;20052;-71
2022/03/13 10:08:55;;;;;;;29.17;14.93;;;8.90;73.50;;;;;;5051103;28;20068;-72
2022/03/13 10:11:34;;;;;;;24.88;14.30;;;9.00;73.60;;;;;;5050299;28;20033;-70
2022/03/13 10:14:10;;;;;;;24.38;13.85;;;9.10;72.90;;;;;;5051330;28;20053;-71
2022/03/13 10:16:40;;;;;;;27.20;14.82;;;9.30;72.50;;;;;;5048124;28;20104;-70
2022/03/13 10:19:16;;;;;;;27.60;14.35;;;9.40;71.50;;;;;;5049801;28;20408;-69
2022/03/13 10:22:03;;;;;;;26.98;13.65;;;9.50;70.70;;;;;;5048647;28;20470;-72
2022/03/13 10:24:30;;;;;;;27.75;14.27;;;9.50;70.40;;;;;;5049086;28;20021;-70
2022/03/13 10:27:16;;;;;;;25.92;14.88;;;9.60;70.50;;;;;;5049888;28;20021;-70
2022/03/13 10:29:42;;;;;;;27.35;14.45;;;9.70;69.70;;;;;;5049580;28;20040;-71
2022/03/13 10:32:09;;;;;;;22.95;12.10;;;9.80;69.40;;;;;;5044274;28;20335;-70
2022/03/13 10:34:36;;;;;;;24.83;11.55;;;10.00;67.20;;;;;;5048318;28;20033;-70
2022/03/13 10:37:02;;;;;;;24.13;14.18;;;10.00;66.20;;;;;;5049831;28;20371;-70
2022/03/13 10:39:29;;;;;;;25.77;14.07;;;10.00;66.80;;;;;;5051147;28;20777;-72
2022/03/13 10:42:04;;;;;;;28.13;14.65;;;10.10;67.50;;;;;;5051424;28;20033;-71
2022/03/13 10:44:34;;;;;;;21.48;13.02;;;10.10;67.70;;;;;;5048119;28;20033;-72
2022/03/13 10:47:08;;;;;;;23.95;14.13;;;10.30;67.80;;;;;;5046702;28;20032;-72
2022/03/13 10:49:37;;;;;;;23.52;12.73;;;10.30;67.40;;;;;;5050988;28;20024;-72
2022/03/13 10:52:25;;;;;;;28.10;13.05;;;10.40;66.60;;;;;;5047119;28;20114;-74
2022/03/13 10:55:15;;;;;;;22.20;12.50;;;10.50;65.80;;;;;;5062668;28;20550;-70
2022/03/13 10:57:52;;;;;;;23.67;12.98;;;10.70;65.60;;;;;;5046911;28;20589;-72
2022/03/13 11:00:18;;;;;;;23.13;12.50;;;10.70;64.90;;;;;;5047330;28;20326;-71
2022/03/13 11:02:44;;;;;;;20.90;12.93;;;10.80;64.90;;;;;;5050850;28;20025;-71
2022/03/13 11:05:10;;;;;;;20.05;12.30;;;10.80;65.00;;;;;;5048791;28;20032;-70
2022/03/13 11:07:36;;;;;;;26.38;13.77;;;11.00;64.40;;;;;;5040304;28;20477;-71
2022/03/13 11:10:03;;;;;;;26.45;12.82;;;11.00;64.20;;;;;;5049186;28;20024;-71
2022/03/13 11:12:31;;;;;;;26.17;14.13;;;11.10;64.20;;;;;;5048095;28;20044;-71
2022/03/13 11:15:00;;;;;;;25.85;14.07;;;11.10;64.30;;;;;;5047185;28;20056;-72
2022/03/13 11:17:30;;;;;;;26.10;13.15;;;11.20;63.90;;;;;;5041920;28;20605;-71
2022/03/13 11:19:58;;;;;;;29.00;14.43;;;11.30;63.80;;;;;;5046781;28;20029;-70
2022/03/13 11:22:24;;;;;;;25.92;14.15;;;11.30;63.60;;;;;;5049709;28;20033;-70
2022/03/13 11:24:56;;;;;;;24.60;14.25;;;11.50;63.00;;;;;;5045907;28;20025;-69
2022/03/13 11:27:25;;;;;;;27.60;15.18;;;11.60;62.40;;;;;;5050484;28;20108;-72
2022/03/13 11:29:53;;;;;;;28.60;14.88;;;11.50;62.20;;;;;;5051574;28;20055;-72
2022/03/13 11:32:35;;;;;;;26.05;13.88;;;11.60;62.30;;;;;;5049011;28;20021;-73
2022/03/13 11:35:18;;;;;;;25.88;14.13;;;11.70;62.10;;;;;;5050217;28;20507;-72
2022/03/13 11:37:53;;;;;;;25.75;14.13;;;11.70;61.60;;;;;;5048411;28;20059;-72
2022/03/13 11:40:29;;;;;;;25.80;15.02;;;11.70;61.80;;;;;;5058533;28;20036;-72
2022/03/13 11:43:12;;;;;;;27.05;15.70;;;11.70;61.70;;;;;;5048975;28;20075;-72
2022/03/13 11:45:48;;;;;;;28.63;14.30;;;11.80;62.00;;;;;;5048928;28;20080;-73
2022/03/13 11:48:19;;;;;;;28.80;15.15;;;11.80;61.60;;;;;;5045369;28;20036;-71
2022/03/13 11:50:58;;;;;;;31.25;14.70;;;11.90;61.30;;;;;;5046234;28;20385;-71
2022/03/13 11:53:30;;;;;;;28.08;14.80;;;11.90;61.20;;;;;;5051388;28;20021;-70
2022/03/13 11:56:06;;;;;;;34.05;16.65;;;12.00;61.10;;;;;;5066160;28;20160;-71
2022/03/13 11:58:49;;;;;;;26.30;14.18;;;12.10;61.00;;;;;;5060228;28;20031;-71
2022/03/13 12:01:15;;;;;;;29.73;15.40;;;12.10;60.60;;;;;;5047120;28;20038;-71
2022/03/13 12:04:14;;;;;;;31.00;14.40;;;12.10;61.20;;;;;;5051049;28;20791;-71
2022/03/13 12:06:48;;;;;;;25.45;14.50;;;12.20;61.20;;;;;;5049699;28;20025;-72
2022/03/13 12:09:28;;;;;;;26.38;15.15;;;12.40;60.30;;;;;;5032154;28;20029;-72
2022/03/13 12:11:56;;;;;;;32.72;16.10;;;12.40;60.20;;;;;;5049547;28;20470;-71
2022/03/13 12:14:53;;;;;;;27.85;14.18;;;12.40;59.80;;;;;;5050435;28;20051;-71
2022/03/13 12:17:20;;;;;;;26.85;14.68;;;12.50;59.30;;;;;;5051508;28;20433;-71
2022/03/13 12:19:46;;;;;;;32.35;16.48;;;12.60;58.70;;;;;;5051337;28;20459;-71
2022/03/13 12:22:15;;;;;;;27.73;15.02;;;12.70;59.00;;;;;;5047482;28;20108;-71
2022/03/13 12:24:51;;;;;;;27.15;15.50;;;12.90;58.90;;;;;;5051152;28;20308;-70
2022/03/13 12:27:18;;;;;;;28.20;15.27;;;12.90;58.60;;;;;;5051508;28;20032;-72
2022/03/13 12:29:55;;;;;;;31.45;16.42;;;13.00;58.10;;;;;;5052190;28;20508;-72
2022/03/13 12:32:21;;;;;;;28.67;15.95;;;12.90;58.40;;;;;;5050378;28;20508;-70
2022/03/13 12:34:47;;;;;;;32.67;16.52;;;13.10;58.00;;;;;;5050421;28;20024;-71
2022/03/13 12:37:12;;;;;;;27.17;16.02;;;13.10;57.40;;;;;;5050431;28;20115;-71
2022/03/13 12:39:51;;;;;;;25.77;14.02;;;13.20;56.90;;;;;;5051840;28;20060;-71